Time;durP1;ratioP1;P1;durP2;ratioP2;P2;SDS_P1;SDS_P2;PMS_P1;PMS_P2;Temp;Humidity;BMP_temperature;BMP_pressure;BME280_temperature;BME280_humidity;BME280_pressure;Samples;Min_cycle;Max_cycle;Signal;HPM_P1;HPM_P2
2021/10/31 00:04:48;;;;;;;20.70;11.60;;;;;;;7.28;57.87;98692.28;236137;1197;24037;-74
2021/10/31 00:09:51;;;;;;;22.80;11.20;;;;;;;7.14;57.95;98697.67;235933;1190;25180;-74
2021/10/31 00:14:55;;;;;;;17.80;10.80;;;;;;;7.07;58.38;98690.22;235955;1197;24013;-75
2021/10/31 00:19:58;;;;;;;20.80;12.00;;;;;;;7.06;58.81;98689.05;235883;1197;22465;-75
2021/10/31 00:25:11;;;;;;;22.40;12.20;;;;;;;7.05;59.33;98687.52;236184;1197;24043;-74
2021/10/31 00:30:13;;;;;;;21.20;12.00;;;;;;;7.03;59.18;98684.15;236168;1197;22465;-75
2021/10/31 00:35:16;;;;;;;24.10;12.20;;;;;;;6.96;59.33;98693.27;235986;1197;25263;-73
2021/10/31 00:40:20;;;;;;;20.40;11.70;;;;;;;6.88;59.59;98699.60;235934;1190;22412;-75
2021/10/31 00:45:23;;;;;;;20.60;12.00;;;;;;;6.76;59.61;98706.73;235912;1197;22548;-74
2021/10/31 00:50:26;;;;;;;23.40;13.70;;;;;;;6.64;59.87;98698.98;235791;1197;24015;-73
2021/10/31 00:55:29;;;;;;;26.90;13.60;;;;;;;6.54;60.33;98693.96;236333;1196;22402;-74
2021/10/31 01:00:32;;;;;;;26.30;13.90;;;;;;;6.47;60.64;98695.82;236366;1190;22418;-73
2021/10/31 01:05:42;;;;;;;25.10;14.30;;;;;;;6.38;61.10;98690.58;236045;1197;24050;-75
2021/10/31 01:11:21;;;;;;;26.00;14.20;;;;;;;6.28;61.16;98698.69;236329;1197;25245;-75
2021/10/31 01:16:53;;;;;;;27.80;15.00;;;;;;;6.21;61.65;98703.09;236074;1197;25195;-75
2021/10/31 01:22:37;;;;;;;27.90;14.40;;;;;;;6.13;61.94;98698.16;235832;1197;22464;-75
2021/10/31 01:27:54;;;;;;;26.20;14.20;;;;;;;6.06;61.88;98694.20;236034;1197;24782;-75
2021/10/31 01:33:15;;;;;;;27.10;14.70;;;;;;;6.05;62.42;98697.59;235942;1197;25405;-76
2021/10/31 01:38:41;;;;;;;32.70;17.30;;;;;;;6.08;62.46;98700.85;236015;1197;25157;-76
2021/10/31 01:43:50;;;;;;;32.40;16.50;;;;;;;6.09;62.53;98704.58;236028;1197;22429;-76
2021/10/31 01:49:18;;;;;;;20.80;12.10;;;;;;;6.08;62.41;98704.80;235926;1197;22447;-74
2021/10/31 01:54:28;;;;;;;22.40;11.70;;;;;;;6.10;62.93;98703.31;236171;1196;24193;-73
2021/10/31 01:59:39;;;;;;;25.00;12.30;;;;;;;6.10;62.94;98700.17;236553;1196;24427;-75
2021/10/31 02:04:46;;;;;;;23.20;12.80;;;;;;;6.07;63.22;98690.05;236084;1197;22441;-76
2021/10/31 02:09:51;;;;;;;19.90;10.70;;;;;;;6.08;63.22;98690.90;235882;1197;22377;-73
2021/10/31 02:14:56;;;;;;;19.10;11.50;;;;;;;6.19;63.63;98697.97;236123;1197;22572;-73
2021/10/31 02:20:00;;;;;;;21.70;12.90;;;;;;;6.30;63.87;98700.55;236115;1182;22491;-73
2021/10/31 02:25:03;;;;;;;22.90;13.30;;;;;;;6.41;63.94;98694.46;236230;1197;22411;-75
2021/10/31 02:30:09;;;;;;;18.50;12.40;;;;;;;6.47;63.95;98690.17;235991;1190;22464;-73
2021/10/31 02:35:13;;;;;;;19.80;12.40;;;;;;;6.50;63.57;98686.02;235909;1197;22436;-75
2021/10/31 02:40:18;;;;;;;20.60;12.60;;;;;;;6.48;63.60;98685.02;236102;1197;25113;-75
2021/10/31 02:45:21;;;;;;;18.90;11.60;;;;;;;6.53;63.56;98678.48;236106;1197;23973;-74
2021/10/31 02:50:35;;;;;;;20.10;12.20;;;;;;;6.61;64.00;98677.04;235942;1191;22420;-75
2021/10/31 02:55:41;;;;;;;17.50;11.10;;;;;;;6.65;63.69;98675.09;236185;1190;22437;-75
2021/10/31 03:00:46;;;;;;;16.80;11.20;;;;;;;6.65;63.53;98677.42;236100;1196;24031;-75
2021/10/31 03:05:52;;;;;;;16.60;11.00;;;;;;;6.64;63.86;98675.50;236016;1198;22455;-75
2021/10/31 03:11:21;;;;;;;17.90;10.70;;;;;;;6.63;63.67;98679.77;235892;1183;24047;-73
2021/10/31 03:16:34;;;;;;;21.10;10.70;;;;;;;6.59;63.62;98671.61;236084;1190;24053;-74
2021/10/31 03:21:51;;;;;;;15.70;8.50;;;;;;;6.62;63.93;98672.46;236107;1190;22434;-75
2021/10/31 03:26:54;;;;;;;12.60;8.00;;;;;;;6.76;64.14;98686.96;236072;1190;25230;-74
2021/10/31 03:31:57;;;;;;;14.30;7.90;;;;;;;6.90;64.42;98694.48;236007;1197;25091;-75
2021/10/31 03:37:01;;;;;;;15.60;8.60;;;;;;;7.08;64.39;98696.77;236129;1190;22457;-74
2021/10/31 03:42:05;;;;;;;14.70;8.60;;;;;;;7.20;64.00;98695.27;235831;1198;24044;-74
2021/10/31 03:47:09;;;;;;;15.40;9.10;;;;;;;7.24;63.50;98689.09;235999;1197;25485;-74
2021/10/31 03:52:12;;;;;;;13.30;8.50;;;;;;;7.30;63.74;98681.77;236034;1197;22432;-76
2021/10/31 03:57:15;;;;;;;13.30;8.40;;;;;;;7.44;63.48;98690.02;235878;1197;25428;-73
2021/10/31 04:02:18;;;;;;;14.50;8.90;;;;;;;7.44;63.06;98706.44;235838;1193;22945;-73
2021/10/31 04:07:21;;;;;;;16.00;9.30;;;;;;;7.35;62.84;98723.61;236119;1190;22433;-75
2021/10/31 04:12:24;;;;;;;18.00;9.70;;;;;;;7.22;62.83;98732.26;235753;1197;24079;-74
2021/10/31 04:17:27;;;;;;;13.50;9.00;;;;;;;7.08;62.86;98731.50;235784;1198;22608;-75
2021/10/31 04:22:29;;;;;;;14.70;9.40;;;;;;;6.96;63.04;98739.12;235769;1191;24054;-73
2021/10/31 04:27:33;;;;;;;13.50;9.00;;;;;;;6.84;63.45;98743.16;235627;1197;22420;-75
2021/10/31 04:32:36;;;;;;;14.60;9.30;;;;;;;6.72;63.45;98756.50;236011;1198;24063;-76
2021/10/31 04:37:42;;;;;;;16.50;10.00;;;;;;;6.59;63.72;98755.88;236007;1190;25139;-75
2021/10/31 04:42:44;;;;;;;17.00;9.60;;;;;;;6.45;63.83;98752.91;236228;1197;22548;-73
2021/10/31 04:47:47;;;;;;;17.00;9.60;;;;;;;6.26;63.78;98752.52;235927;1197;25157;-76
2021/10/31 04:52:49;;;;;;;17.00;9.90;;;;;;;6.11;63.81;98755.81;235913;1197;24081;-73
2021/10/31 04:57:52;;;;;;;16.80;10.40;;;;;;;6.04;64.63;98754.35;235881;1197;24085;-76
2021/10/31 05:02:55;;;;;;;17.10;10.90;;;;;;;6.05;65.08;98759.02;235929;1197;25309;-75
2021/10/31 05:07:58;;;;;;;16.10;10.10;;;;;;;6.04;65.11;98750.30;236022;1197;25753;-75
2021/10/31 05:13:01;;;;;;;16.80;11.60;;;;;;;6.02;65.16;98747.67;236062;1197;24053;-75
2021/10/31 05:18:04;;;;;;;16.20;11.30;;;;;;;5.92;64.93;98744.37;236029;1191;24035;-75
2021/10/31 05:23:07;;;;;;;19.00;10.90;;;;;;;5.78;65.34;98738.66;235973;1197;24119;-75
2021/10/31 05:28:21;;;;;;;15.90;10.20;;;;;;;5.71;65.54;98740.38;236384;1196;22635;-74
2021/10/31 05:33:25;;;;;;;14.80;10.10;;;;;;;5.74;65.86;98751.28;236538;1196;24049;-76
2021/10/31 05:38:27;;;;;;;26.80;12.30;;;;;;;5.85;66.01;98749.75;236121;1196;22447;-74
2021/10/31 05:43:30;;;;;;;21.20;14.40;;;;;;;5.95;66.25;98744.70;236182;1196;24072;-74
2021/10/31 05:48:33;;;;;;;23.20;12.60;;;;;;;5.99;65.88;98749.70;235999;1190;24051;-73
2021/10/31 05:53:36;;;;;;;19.90;12.70;;;;;;;6.01;66.01;98747.84;236271;1196;22549;-75
2021/10/31 05:58:38;;;;;;;18.80;12.20;;;;;;;6.00;65.93;98745.27;236229;1181;23679;-76
2021/10/31 06:03:41;;;;;;;20.10;13.10;;;;;;;6.00;65.81;98746.55;235849;1196;24171;-73
2021/10/31 06:08:44;;;;;;;23.70;14.60;;;;;;;6.05;65.88;98747.33;235973;1197;22437;-73
2021/10/31 06:13:47;;;;;;;24.80;15.00;;;;;;;6.12;66.22;98748.70;236052;1184;25142;-74
2021/10/31 06:18:50;;;;;;;26.00;14.30;;;;;;;6.21;65.84;98746.02;236077;1197;24881;-75
2021/10/31 06:23:54;;;;;;;20.90;12.50;;;;;;;6.26;65.89;98741.16;236112;1197;26396;-73
2021/10/31 06:28:56;;;;;;;19.60;11.60;;;;;;;6.38;66.16;98748.89;236003;1197;25111;-73
2021/10/31 06:34:12;;;;;;;18.70;11.70;;;;;;;6.56;66.22;98751.78;235875;1197;25130;-73
2021/10/31 06:39:36;;;;;;;21.30;13.20;;;;;;;6.84;65.87;98760.24;235874;1197;22434;-75
2021/10/31 06:44:39;;;;;;;21.60;13.20;;;;;;;7.11;65.87;98766.94;235812;1193;24634;-75
2021/10/31 06:49:42;;;;;;;23.00;12.90;;;;;;;7.38;65.66;98772.22;235756;1197;24050;-74
2021/10/31 06:54:45;;;;;;;23.30;13.00;;;;;;;7.64;65.26;98770.45;236266;1196;24043;-73
2021/10/31 06:59:50;;;;;;;19.50;12.00;;;;;;;7.88;64.99;98772.98;236381;1196;24402;-74
2021/10/31 07:04:55;;;;;;;21.00;11.70;;;;;;;8.10;64.52;98775.78;236304;1194;22629;-74
2021/10/31 07:09:57;;;;;;;21.80;12.40;;;;;;;8.48;64.54;98774.86;236588;1191;24050;-75
2021/10/31 07:15:00;;;;;;;18.90;12.60;;;;;;;8.84;63.59;98781.58;236638;1190;24063;-74
2021/10/31 07:20:06;;;;;;;22.50;13.00;;;;;;;9.08;63.24;98785.09;236502;1196;22440;-75
2021/10/31 07:25:10;;;;;;;24.90;15.10;;;;;;;9.39;62.07;98787.02;236920;1196;24767;-75
2021/10/31 07:30:13;;;;;;;28.90;16.00;;;;;;;9.63;61.71;98786.21;235972;1196;25158;-75
2021/10/31 07:35:18;;;;;;;24.80;15.00;;;;;;;9.83;61.47;98789.52;235886;1190;24062;-73
2021/10/31 07:40:22;;;;;;;28.60;16.20;;;;;;;10.00;61.11;98790.13;235819;1197;25331;-74
2021/10/31 07:45:30;;;;;;;21.30;13.50;;;;;;;10.18;60.72;98786.80;235896;1191;24051;-73
2021/10/31 07:50:36;;;;;;;23.90;14.50;;;;;;;10.34;60.46;98790.20;236087;1197;24122;-75
2021/10/31 07:55:41;;;;;;;21.90;12.90;;;;;;;10.51;60.12;98790.61;236307;1196;24155;-75
2021/10/31 08:00:43;;;;;;;22.00;12.80;;;;;;;10.68;59.68;98786.65;236838;1190;22873;-75
2021/10/31 08:05:47;;;;;;;18.10;12.00;;;;;;;10.83;59.46;98778.94;236611;1196;22426;-75
2021/10/31 08:11:09;;;;;;;18.30;11.20;;;;;;;11.01;59.03;98773.37;236503;1196;24034;-73
2021/10/31 08:16:13;;;;;;;19.80;11.40;;;;;;;11.20;58.88;98775.98;236146;1196;25205;-75
2021/10/31 08:21:16;;;;;;;16.70;10.30;;;;;;;11.38;58.52;98770.02;236567;1196;22464;-72
2021/10/31 08:26:18;;;;;;;13.80;8.60;;;;;;;11.57;58.00;98770.27;236519;1196;22398;-73
2021/10/31 08:31:27;;;;;;;13.10;7.80;;;;;;;11.79;57.10;98760.56;235834;1197;22540;-75
2021/10/31 08:36:31;;;;;;;10.20;7.30;;;;;;;12.02;56.56;98756.83;236111;1197;25030;-75
2021/10/31 08:41:34;;;;;;;8.90;6.40;;;;;;;12.29;56.12;98755.52;236247;1197;24123;-73
2021/10/31 08:46:37;;;;;;;9.40;6.50;;;;;;;12.51;54.09;98754.19;236069;1190;25156;-75
2021/10/31 08:51:40;;;;;;;10.20;5.80;;;;;;;12.73;53.21;98747.64;236099;1197;25119;-75
2021/10/31 08:56:43;;;;;;;8.50;5.60;;;;;;;12.96;52.83;98745.47;236656;1196;25417;-75
2021/10/31 09:01:46;;;;;;;10.30;5.70;;;;;;;13.13;52.03;98742.67;236209;1196;24050;-74
2021/10/31 09:06:49;;;;;;;9.20;5.60;;;;;;;13.27;50.91;98744.69;236116;1196;22660;-74
2021/10/31 09:11:52;;;;;;;9.60;6.00;;;;;;;13.41;50.69;98733.02;236445;1190;22442;-75
2021/10/31 09:16:55;;;;;;;8.20;5.60;;;;;;;13.55;50.85;98735.82;236363;1196;24563;-74
2021/10/31 09:21:58;;;;;;;10.10;6.50;;;;;;;13.69;49.97;98732.24;236526;1190;22563;-75
2021/10/31 09:27:00;;;;;;;9.90;6.70;;;;;;;13.80;48.70;98726.50;236334;1190;25116;-75
2021/10/31 09:32:03;;;;;;;8.00;5.60;;;;;;;13.93;49.16;98722.98;235964;1190;24193;-76
2021/10/31 09:37:06;;;;;;;9.80;6.10;;;;;;;14.04;48.59;98716.95;235791;1197;24072;-75
2021/10/31 09:42:10;;;;;;;10.40;5.90;;;;;;;14.19;47.85;98714.39;235985;1197;23981;-75
2021/10/31 09:47:13;;;;;;;8.30;5.70;;;;;;;14.34;47.45;98709.11;235982;1197;26137;-75
2021/10/31 09:52:16;;;;;;;8.10;5.40;;;;;;;14.49;47.29;98706.51;236023;1196;24085;-74
2021/10/31 09:57:18;;;;;;;8.00;5.30;;;;;;;14.66;47.03;98697.51;236390;1196;22432;-73
2021/10/31 10:07:43;;;;;;;7.40;5.20;;;;;;;15.00;46.95;98689.84;236454;1196;24576;-75
2021/10/31 10:12:46;;;;;;;6.80;4.90;;;;;;;15.15;45.96;98688.39;236143;1196;24046;-73
2021/10/31 10:17:51;;;;;;;7.30;4.90;;;;;;;15.29;45.63;98679.19;236225;1189;24034;-73
2021/10/31 10:23:08;;;;;;;5.80;4.30;;;;;;;15.45;44.64;98679.43;236712;1196;22424;-73
2021/10/31 10:28:30;;;;;;;7.90;5.20;;;;;;;15.57;44.74;98677.00;236151;1190;22581;-75
2021/10/31 10:33:47;;;;;;;7.30;5.00;;;;;;;15.72;45.02;98673.98;236005;1198;24585;-72
2021/10/31 10:39:06;;;;;;;8.20;5.60;;;;;;;15.87;44.46;98668.35;235829;1197;22451;-75
2021/10/31 10:44:30;;;;;;;6.60;4.60;;;;;;;16.00;43.82;98657.78;236041;1196;22440;-75
2021/10/31 10:49:37;;;;;;;7.80;5.00;;;;;;;16.13;44.10;98647.48;236108;1197;22450;-75
2021/10/31 10:54:50;;;;;;;8.90;5.40;;;;;;;16.23;43.67;98641.71;236308;1196;22451;-73
2021/10/31 10:59:57;;;;;;;6.90;5.10;;;;;;;16.33;44.14;98634.88;236313;1196;24605;-75
2021/10/31 11:05:08;;;;;;;18.30;12.60;;;;;;;16.42;44.05;98625.48;236210;1196;25154;-74
2021/10/31 11:10:21;;;;;;;9.90;6.80;;;;;;;16.50;44.03;98622.67;236590;1196;22417;-75
2021/10/31 11:15:27;;;;;;;9.50;6.70;;;;;;;16.59;43.89;98612.41;236464;1196;24009;-75
2021/10/31 11:20:37;;;;;;;6.70;4.70;;;;;;;16.67;42.76;98606.05;236538;1196;24040;-74
2021/10/31 11:25:42;;;;;;;4.90;4.10;;;;;;;16.74;42.70;98599.55;236446;1193;22936;-74
2021/10/31 11:30:48;;;;;;;6.60;4.70;;;;;;;16.81;43.10;98591.05;235815;1197;25051;-74
2021/10/31 11:35:52;;;;;;;6.30;4.90;;;;;;;16.87;43.00;98590.88;235895;1196;22479;-75
2021/10/31 11:41:09;;;;;;;6.50;4.40;;;;;;;16.93;42.80;98581.92;235985;1197;22439;-73
2021/10/31 11:46:12;;;;;;;8.50;4.80;;;;;;;16.96;42.24;98574.21;235943;1197;22428;-76
2021/10/31 11:51:15;;;;;;;9.10;5.90;;;;;;;17.00;42.49;98573.86;236072;1190;25164;-75
2021/10/31 11:56:24;;;;;;;7.20;5.00;;;;;;;17.04;42.16;98566.10;236251;1196;25180;-74
2021/10/31 12:01:46;;;;;;;6.30;4.60;;;;;;;17.08;41.71;98557.68;236634;1196;25042;-76
2021/10/31 12:07:02;;;;;;;7.30;4.80;;;;;;;17.16;41.85;98558.85;236327;1196;22476;-75
2021/10/31 12:12:08;;;;;;;6.80;5.30;;;;;;;17.20;42.23;98555.21;236398;1196;24544;-76
2021/10/31 12:17:11;;;;;;;7.50;4.50;;;;;;;17.26;42.05;98547.05;236318;1196;22466;-74
2021/10/31 12:22:16;;;;;;;6.20;4.80;;;;;;;17.30;42.24;98539.17;236190;1190;24104;-74
2021/10/31 12:27:24;;;;;;;6.30;4.60;;;;;;;17.35;42.21;98530.52;236258;1193;23983;-75
2021/10/31 12:32:30;;;;;;;5.90;4.80;;;;;;;17.39;42.00;98523.45;236129;1197;22578;-75
2021/10/31 12:37:32;;;;;;;7.60;5.30;;;;;;;17.42;41.38;98522.70;235742;1198;22434;-74
2021/10/31 12:42:50;;;;;;;8.00;4.80;;;;;;;17.42;41.49;98515.73;235793;1196;22510;-74
2021/10/31 12:48:11;;;;;;;7.30;4.60;;;;;;;17.41;41.28;98512.77;235807;1197;22522;-73
2021/10/31 12:53:14;;;;;;;7.60;5.40;;;;;;;17.43;41.65;98502.77;235873;1198;25130;-73
2021/10/31 12:58:22;;;;;;;8.70;4.90;;;;;;;17.49;41.39;98500.67;235905;1193;23984;-73
2021/10/31 13:03:25;;;;;;;7.40;5.50;;;;;;;17.49;41.38;98490.02;236012;1198;24600;-75
2021/10/31 13:08:28;;;;;;;6.20;4.50;;;;;;;17.48;41.40;98488.84;235935;1196;26147;-75
2021/10/31 13:13:30;;;;;;;5.90;4.80;;;;;;;17.48;41.63;98482.64;235997;1197;25348;-75
2021/10/31 13:18:34;;;;;;;7.00;5.00;;;;;;;17.47;41.86;98477.27;235871;1197;24159;-75
2021/10/31 13:23:42;;;;;;;9.20;6.10;;;;;;;17.43;41.64;98473.75;235912;1193;22963;-75
2021/10/31 13:28:49;;;;;;;7.20;5.30;;;;;;;17.39;41.62;98467.85;235843;1196;24084;-75
2021/10/31 13:34:07;;;;;;;6.80;5.30;;;;;;;17.38;41.83;98464.33;235771;1198;24522;-73
2021/10/31 13:39:13;;;;;;;6.30;4.80;;;;;;;17.37;41.90;98466.45;235909;1193;24930;-74
2021/10/31 13:44:19;;;;;;;7.40;4.80;;;;;;;17.32;42.08;98464.75;236200;1198;22470;-75
2021/10/31 13:49:23;;;;;;;8.00;5.40;;;;;;;17.25;42.21;98460.85;236203;1190;24156;-74
2021/10/31 13:54:28;;;;;;;9.40;5.30;;;;;;;17.17;42.23;98452.09;235884;1198;24132;-75
2021/10/31 13:59:30;;;;;;;7.70;5.70;;;;;;;17.09;42.28;98450.29;235933;1198;22417;-75
2021/10/31 14:04:34;;;;;;;6.70;4.70;;;;;;;16.98;42.51;98442.54;235843;1184;24510;-73
2021/10/31 14:09:49;;;;;;;5.80;4.60;;;;;;;16.85;42.60;98440.10;235822;1198;25264;-76
2021/10/31 14:15:11;;;;;;;8.30;5.40;;;;;;;16.70;42.88;98434.98;235815;1197;24063;-75
2021/10/31 14:20:16;;;;;;;6.80;5.40;;;;;;;16.55;43.11;98438.06;235974;1197;24089;-75
2021/10/31 14:25:25;;;;;;;9.90;7.30;;;;;;;16.42;43.38;98435.30;236153;1190;24059;-74
2021/10/31 14:30:32;;;;;;;9.40;5.90;;;;;;;16.27;43.48;98431.39;235997;1197;24490;-73
2021/10/31 14:35:40;;;;;;;9.30;6.10;;;;;;;16.11;43.61;98422.14;235798;1198;24119;-75
2021/10/31 14:40:45;;;;;;;7.30;4.60;;;;;;;15.94;43.69;98419.63;235845;1198;22573;-74
2021/10/31 14:46:14;;;;;;;6.40;4.60;;;;;;;15.78;43.66;98413.43;235584;1193;22478;-76
2021/10/31 14:51:38;;;;;;;5.60;4.30;;;;;;;15.60;43.58;98410.60;235595;1198;24088;-74
2021/10/31 15:02:23;;;;;;;4.80;4.20;;;;;;;15.25;43.62;98411.64;235924;1197;25177;-75
2021/10/31 15:07:29;;;;;;;6.20;4.40;;;;;;;15.05;43.76;98410.34;236223;1197;24137;-74
2021/10/31 15:12:32;;;;;;;7.10;5.40;;;;;;;14.83;43.96;98408.88;236022;1190;22426;-76
2021/10/31 15:17:40;;;;;;;7.70;5.50;;;;;;;14.61;44.07;98411.26;235940;1198;24050;-75
2021/10/31 15:22:49;;;;;;;9.50;7.20;;;;;;;14.46;44.36;98407.92;236052;1197;22658;-73
2021/10/31 15:27:52;;;;;;;12.20;8.00;;;;;;;14.27;44.47;98401.40;235900;1198;26220;-73
2021/10/31 15:32:54;;;;;;;12.20;8.70;;;;;;;14.09;44.61;98404.96;235749;1198;22636;-75
2021/10/31 15:37:57;;;;;;;9.60;6.40;;;;;;;13.93;44.85;98401.57;235962;1197;24001;-73
2021/10/31 15:43:00;;;;;;;9.30;6.30;;;;;;;13.73;44.89;98398.81;235784;1197;24104;-75
2021/10/31 15:48:03;;;;;;;12.50;7.20;;;;;;;13.52;45.23;98395.66;235745;1197;22442;-74
2021/10/31 15:53:05;;;;;;;32.70;12.60;;;;;;;13.31;45.54;98387.73;235859;1198;24455;-72
2021/10/31 15:58:08;;;;;;;20.00;11.70;;;;;;;13.10;45.87;98385.41;236064;1197;22422;-72
2021/10/31 16:03:13;;;;;;;19.60;11.30;;;;;;;12.96;46.26;98382.12;236105;1197;25351;-75
2021/10/31 16:08:17;;;;;;;26.10;15.10;;;;;;;12.86;46.49;98378.13;235698;1184;24155;-74
2021/10/31 16:13:21;;;;;;;42.80;23.20;;;;;;;12.78;46.65;98380.09;236057;1197;25236;-74
2021/10/31 16:18:26;;;;;;;44.20;24.40;;;;;;;12.68;46.88;98386.77;236005;1198;22464;-74
2021/10/31 16:23:44;;;;;;;46.40;23.40;;;;;;;12.58;47.25;98382.68;235954;1193;24134;-75
2021/10/31 16:29:07;;;;;;;35.70;18.10;;;;;;;12.48;47.57;98387.55;235832;1193;26486;-75
2021/10/31 16:34:10;;;;;;;28.90;16.70;;;;;;;12.42;47.81;98387.21;235823;1193;22578;-74
2021/10/31 16:39:15;;;;;;;25.00;13.20;;;;;;;12.36;48.12;98383.13;236064;1197;24088;-73
2021/10/31 16:44:18;;;;;;;22.30;13.40;;;;;;;12.29;48.24;98382.02;236276;1190;24268;-75
2021/10/31 16:49:20;;;;;;;18.00;12.20;;;;;;;12.20;48.34;98380.27;236380;1197;22555;-75
2021/10/31 16:54:23;;;;;;;21.90;13.70;;;;;;;12.10;48.47;98380.73;236120;1190;22974;-75
2021/10/31 16:59:39;;;;;;;21.50;13.90;;;;;;;12.01;48.62;98377.42;236044;1190;24196;-74
2021/10/31 17:04:55;;;;;;;23.00;13.60;;;;;;;11.88;48.81;98369.40;236247;1190;24190;-75
2021/10/31 17:10:01;;;;;;;20.50;13.00;;;;;;;11.74;48.92;98368.55;236372;1197;22774;-75
2021/10/31 17:15:07;;;;;;;29.10;16.60;;;;;;;11.63;49.02;98364.14;235809;1197;22484;-76
2021/10/31 17:20:11;;;;;;;29.40;18.50;;;;;;;11.48;49.37;98369.27;236291;1196;24123;-75
2021/10/31 17:25:16;;;;;;;40.30;24.80;;;;;;;11.22;49.87;98369.64;236257;1197;22559;-75
2021/10/31 17:30:18;;;;;;;41.30;24.40;;;;;;;10.93;50.46;98370.09;236082;1190;22459;-75
2021/10/31 17:35:21;;;;;;;46.80;28.20;;;;;;;10.68;50.90;98372.17;235886;1182;22550;-73
2021/10/31 17:40:24;;;;;;;49.60;28.90;;;;;;;10.42;51.07;98367.73;235896;1193;24410;-74
2021/10/31 17:45:27;;;;;;;42.70;25.20;;;;;;;10.18;51.54;98362.31;235722;1198;25197;-73
2021/10/31 17:50:30;;;;;;;44.20;27.00;;;;;;;9.96;52.10;98358.95;236036;1190;24041;-75
2021/10/31 17:55:38;;;;;;;48.00;26.70;;;;;;;9.75;52.44;98357.69;235972;1197;24093;-73
2021/10/31 18:00:41;;;;;;;43.30;25.70;;;;;;;9.57;52.87;98354.48;236194;1197;22433;-73
2021/10/31 18:05:51;;;;;;;43.90;25.30;;;;;;;9.41;53.37;98349.88;235890;1197;24028;-72
2021/10/31 18:10:54;;;;;;;45.30;25.00;;;;;;;9.29;53.87;98347.55;235859;1197;22447;-73
2021/10/31 18:15:58;;;;;;;45.30;25.00;;;;;;;9.20;54.21;98338.53;236092;1184;24178;-74
2021/10/31 18:21:02;;;;;;;45.40;25.90;;;;;;;9.11;54.35;98329.40;236167;1190;24053;-74
2021/10/31 18:26:05;;;;;;;46.00;25.10;;;;;;;9.06;54.68;98324.77;236125;1197;25218;-75
2021/10/31 18:31:09;;;;;;;42.00;24.50;;;;;;;9.00;54.81;98320.70;236142;1184;24053;-75
2021/10/31 18:36:15;;;;;;;43.30;24.90;;;;;;;8.94;55.05;98308.59;236196;1197;24084;-75
2021/10/31 18:41:18;;;;;;;46.10;27.10;;;;;;;8.92;55.40;98301.73;236071;1197;24036;-74
2021/10/31 18:46:21;;;;;;;46.60;26.70;;;;;;;8.91;55.46;98298.09;236141;1197;25309;-75
2021/10/31 18:51:24;;;;;;;44.50;25.20;;;;;;;8.96;55.77;98293.34;236043;1190;22546;-75
2021/10/31 18:56:27;;;;;;;60.00;33.20;;;;;;;9.03;55.97;98289.23;236129;1190;22873;-73
2021/10/31 19:01:32;;;;;;;64.50;35.30;;;;;;;9.07;56.12;98288.36;236116;1196;25119;-74
2021/10/31 19:06:36;;;;;;;62.10;35.60;;;;;;;9.05;56.06;98284.55;236040;1197;24267;-74
2021/10/31 19:11:39;;;;;;;61.80;34.80;;;;;;;8.96;56.06;98276.66;236377;1197;24041;-78
2021/10/31 19:16:44;;;;;;;59.30;33.50;;;;;;;8.82;56.09;98277.52;236532;1197;24880;-75
2021/10/31 19:21:49;;;;;;;67.90;36.80;;;;;;;8.67;56.13;98271.69;236040;1197;25014;-75
2021/10/31 19:26:53;;;;;;;62.70;33.30;;;;;;;8.48;56.53;98271.16;236428;1197;22464;-75
2021/10/31 19:31:56;;;;;;;53.50;31.70;;;;;;;8.28;56.80;98267.38;235868;1198;23976;-75
2021/10/31 19:37:00;;;;;;;53.60;29.20;;;;;;;8.08;57.24;98265.90;235872;1198;22463;-75
2021/10/31 19:42:03;;;;;;;55.30;30.40;;;;;;;7.94;57.48;98262.65;235923;1190;24330;-75
2021/10/31 19:47:19;;;;;;;60.40;33.50;;;;;;;7.86;58.05;98253.98;235931;1180;24088;-75
2021/10/31 19:52:42;;;;;;;51.40;31.10;;;;;;;7.83;58.47;98255.99;236001;1197;24114;-75
2021/10/31 19:57:44;;;;;;;49.00;30.30;;;;;;;7.74;58.54;98255.38;236069;1196;24029;-73
2021/10/31 20:02:47;;;;;;;46.90;27.10;;;;;;;7.58;58.62;98255.38;235994;1197;22653;-73
2021/10/31 20:07:51;;;;;;;42.60;25.90;;;;;;;7.41;58.96;98250.68;236111;1196;22484;-75
2021/10/31 20:12:53;;;;;;;45.50;24.60;;;;;;;7.28;59.15;98247.39;236107;1190;24219;-74
2021/10/31 20:17:59;;;;;;;43.20;23.70;;;;;;;7.19;59.42;98243.55;236002;1197;22434;-75
2021/10/31 20:23:02;;;;;;;34.70;17.80;;;;;;;7.19;59.81;98241.64;235753;1197;24052;-74
2021/10/31 20:28:05;;;;;;;28.70;15.40;;;;;;;7.31;59.63;98237.55;235954;1197;22476;-74
2021/10/31 20:33:08;;;;;;;46.20;24.80;;;;;;;7.54;59.63;98232.80;236038;1183;24175;-73
2021/10/31 20:38:12;;;;;;;45.60;26.00;;;;;;;7.63;59.50;98233.98;236071;1182;24117;-75
2021/10/31 20:43:15;;;;;;;41.70;22.10;;;;;;;7.61;59.42;98228.91;236268;1197;25202;-75
2021/10/31 20:48:20;;;;;;;45.40;23.60;;;;;;;7.57;59.37;98225.23;235869;1198;24059;-73
2021/10/31 20:53:23;;;;;;;46.40;26.40;;;;;;;7.52;59.41;98220.98;235893;1186;22422;-73
2021/10/31 20:58:28;;;;;;;48.30;26.70;;;;;;;7.45;59.49;98212.27;236189;1196;22434;-75
2021/10/31 21:03:30;;;;;;;47.40;25.30;;;;;;;7.39;59.63;98207.27;235990;1190;24126;-74
2021/10/31 21:08:33;;;;;;;42.70;23.50;;;;;;;7.35;59.89;98207.23;235978;1190;24021;-75
2021/10/31 21:13:36;;;;;;;44.80;23.70;;;;;;;7.31;59.88;98200.41;236073;1197;22437;-76
2021/10/31 21:18:40;;;;;;;47.90;24.20;;;;;;;7.26;59.91;98190.70;236106;1197;25191;-73
2021/10/31 21:23:44;;;;;;;42.90;23.50;;;;;;;7.18;59.85;98186.93;235956;1190;24049;-75
2021/10/31 21:28:47;;;;;;;40.80;23.30;;;;;;;7.10;59.63;98176.02;235940;1190;26151;-75
2021/10/31 21:33:50;;;;;;;40.10;21.40;;;;;;;6.96;59.92;98170.23;236034;1197;25157;-75
2021/10/31 21:38:59;;;;;;;40.20;21.70;;;;;;;6.84;60.02;98156.58;236045;1190;24101;-76
2021/10/31 21:44:02;;;;;;;40.50;20.50;;;;;;;6.76;60.04;98150.31;236099;1197;24066;-75
2021/10/31 21:49:06;;;;;;;35.00;18.10;;;;;;;6.70;59.92;98145.58;236101;1190;22427;-76
2021/10/31 21:54:09;;;;;;;34.40;17.60;;;;;;;6.70;60.18;98141.31;235981;1197;27208;-73
2021/10/31 21:59:12;;;;;;;33.80;18.30;;;;;;;6.75;60.30;98135.09;236111;1197;25156;-75
2021/10/31 22:04:14;;;;;;;30.50;16.10;;;;;;;6.79;60.48;98129.48;235999;1197;24053;-73
2021/10/31 22:09:17;;;;;;;32.60;16.00;;;;;;;6.81;60.37;98123.86;236111;1190;25276;-75
2021/10/31 22:14:20;;;;;;;25.10;13.80;;;;;;;6.82;60.41;98113.05;236048;1190;24136;-76
2021/10/31 22:19:23;;;;;;;28.80;12.60;;;;;;;6.82;60.40;98115.60;236276;1174;24100;-75
2021/10/31 22:24:26;;;;;;;19.50;9.80;;;;;;;6.85;60.43;98112.44;235841;1197;24044;-75
2021/10/31 22:29:29;;;;;;;25.30;13.60;;;;;;;6.91;60.46;98106.37;235936;1196;24041;-74
2021/10/31 22:34:31;;;;;;;24.10;13.30;;;;;;;6.95;59.94;98102.34;235869;1197;22434;-74
2021/10/31 22:39:33;;;;;;;20.10;10.90;;;;;;;6.96;59.91;98087.95;236046;1190;25240;-74
2021/10/31 22:44:51;;;;;;;17.80;10.40;;;;;;;7.03;60.06;98078.52;235891;1178;22429;-74
2021/10/31 22:50:09;;;;;;;15.10;8.70;;;;;;;7.17;60.57;98066.60;236070;1190;24037;-73
2021/10/31 22:55:11;;;;;;;17.40;9.30;;;;;;;7.37;60.65;98064.14;236108;1197;24857;-74
2021/10/31 23:00:46;;;;;;;18.60;9.70;;;;;;;7.55;60.33;98056.93;236002;1197;22436;-75
2021/10/31 23:05:49;;;;;;;14.00;8.40;;;;;;;7.62;60.00;98053.54;236170;1193;22450;-76
2021/10/31 23:10:58;;;;;;;11.70;7.10;;;;;;;7.67;59.94;98052.83;235992;1197;22471;-74
2021/10/31 23:16:03;;;;;;;9.50;6.10;;;;;;;7.78;59.87;98046.89;236003;1190;24047;-75
2021/10/31 23:21:08;;;;;;;10.50;6.60;;;;;;;7.90;59.73;98041.71;235838;1197;22436;-75
2021/10/31 23:26:11;;;;;;;8.00;5.60;;;;;;;8.00;59.50;98045.72;236056;1196;25299;-74
2021/10/31 23:31:14;;;;;;;8.40;5.60;;;;;;;8.11;59.39;98038.75;235599;1197;24085;-74
2021/10/31 23:36:20;;;;;;;7.60;5.30;;;;;;;8.15;59.13;98028.39;235823;1198;22379;-74
2021/10/31 23:41:33;;;;;;;10.30;5.70;;;;;;;8.20;59.14;98028.20;235894;1198;22477;-75
2021/10/31 23:46:48;;;;;;;8.70;5.60;;;;;;;8.20;58.97;98020.67;235854;1193;23982;-74